createdAt,value
2024-03-08T00:42:35.273Z,17.92
2024-03-08T01:47:52.726Z,19.70
2024-03-08T01:51:16.316Z,16.73
2024-03-08T02:52:55.482Z,24.73
2024-03-08T03:58:24.162Z,35.43
2024-03-08T05:03:52.390Z,43.45
2024-03-08T05:07:14.182Z,38.70
2024-03-08T06:05:19.023Z,39.97
2024-03-08T06:08:40.909Z,37.10
2024-03-08T06:12:03.031Z,34.92
2024-03-08T06:15:25.342Z,42.45
2024-03-08T06:18:48.118Z,40.50
2024-03-08T06:22:10.891Z,36.90
2024-03-08T06:25:32.761Z,38.10
2024-03-08T06:28:54.865Z,40.67
2024-03-08T06:32:17.040Z,37.03
2024-03-08T06:35:41.151Z,42.38
2024-03-08T06:39:10.627Z,37.03
2024-03-08T06:42:14.464Z,38.75
2024-03-08T06:45:21.863Z,34.67
2024-03-08T06:48:59.004Z,37.03
2024-03-08T06:52:27.679Z,37.08
2024-03-08T07:54:38.611Z,39.65
2024-03-08T07:57:41.971Z,36.22
2024-03-08T08:45:16.916Z,38.93
2024-03-08T08:48:21.655Z,34.92
2024-03-08T08:51:29.437Z,36.78
2024-03-08T08:54:32.852Z,35.42
2024-03-08T08:57:36.954Z,41.63
2024-03-08T09:00:40.391Z,40.20
2024-03-08T09:03:43.699Z,43.17
2024-03-08T09:06:46.897Z,39.42
2024-03-08T09:09:50.125Z,40.50
2024-03-08T09:12:53.990Z,37.95
2024-03-08T09:15:58.485Z,41.47
2024-03-08T09:19:01.860Z,39.78
2024-03-08T09:22:05.875Z,42.60
2024-03-08T09:25:11.090Z,36.05
2024-03-08T09:28:15.434Z,41.08
2024-03-08T09:31:18.761Z,42.10
2024-03-08T09:34:25.758Z,38.60
2024-03-08T09:37:32.973Z,43.45
2024-03-08T09:40:45.975Z,41.88
2024-03-08T09:43:49.945Z,34.65
2024-03-08T09:46:54.388Z,41.13
2024-03-08T09:49:58.037Z,42.33
2024-03-08T09:53:01.737Z,43.05
2024-03-08T09:56:05.549Z,40.03
2024-03-08T09:59:24.158Z,44.90
2024-03-08T10:02:27.836Z,41.50
2024-03-08T10:05:34.630Z,41.40
2024-03-08T10:08:38.165Z,40.63
2024-03-08T10:11:42.167Z,38.63
2024-03-08T10:14:45.686Z,42.60
2024-03-08T10:17:50.433Z,34.30
2024-03-08T10:21:11.349Z,39.25
2024-03-08T10:24:17.009Z,41.08
2024-03-08T10:27:20.355Z,39.72
2024-03-08T10:30:24.690Z,40.88
2024-03-08T10:33:28.356Z,40.50
2024-03-08T10:36:31.608Z,45.25
2024-03-08T10:39:38.687Z,45.13
2024-03-08T10:43:00.819Z,37.33
2024-03-08T10:46:29.438Z,40.72
2024-03-08T10:49:51.388Z,39.67
2024-03-08T10:52:54.970Z,45.30
2024-03-08T10:56:01.035Z,41.70
2024-03-08T10:59:05.945Z,39.35
2024-03-08T11:02:09.496Z,43.58
2024-03-08T11:05:17.444Z,39.10
2024-03-08T11:08:20.883Z,36.55
2024-03-08T11:11:36.150Z,35.47
2024-03-08T11:14:47.704Z,40.10
2024-03-08T11:17:51.523Z,38.97
2024-03-08T11:20:58.987Z,33.47
2024-03-08T11:24:09.331Z,36.50
2024-03-08T11:27:14.049Z,35.72
2024-03-08T11:30:25.589Z,35.65
2024-03-08T11:33:29.731Z,36.55
2024-03-08T11:36:36.891Z,38.83
2024-03-08T11:39:41.480Z,34.28
2024-03-08T11:42:49.306Z,33.88
2024-03-08T11:46:09.904Z,34.55
2024-03-08T11:49:53.318Z,31.98
2024-03-08T11:53:04.236Z,33.87
2024-03-08T11:56:11.293Z,31.73
2024-03-08T11:59:14.490Z,26.08
2024-03-08T12:02:17.566Z,28.58
2024-03-08T12:14:34.443Z,32.35
2024-03-08T12:17:37.546Z,33.72
2024-03-08T12:20:42.838Z,38.17
2024-03-08T12:23:46.307Z,36.08
2024-03-08T12:26:49.737Z,40.17
2024-03-08T12:29:53.700Z,37.17
2024-03-08T12:33:00.925Z,37.20
2024-03-08T12:36:08.412Z,37.67
2024-03-08T12:39:13.622Z,38.88
2024-03-08T12:42:16.886Z,36.83
2024-03-08T12:45:20.016Z,33.97
2024-03-08T12:48:23.058Z,32.70
2024-03-08T12:51:26.199Z,37.80
2024-03-08T12:54:29.258Z,31.83
2024-03-08T12:57:32.309Z,31.57
2024-03-08T13:00:37.809Z,29.08
2024-03-08T13:03:41.228Z,30.88
2024-03-08T13:06:44.353Z,30.08
2024-03-08T13:09:47.589Z,35.05
2024-03-08T13:12:54.085Z,32.60
2024-03-08T13:15:58.703Z,34.25
2024-03-08T13:19:01.846Z,45.55
2024-03-08T13:22:08.841Z,46.05
2024-03-08T13:25:14.940Z,40.03
2024-03-08T13:28:21.021Z,37.87
2024-03-08T13:31:24.248Z,39.03
2024-03-08T13:34:30.750Z,35.67
2024-03-08T13:37:34.734Z,37.15
2024-03-08T13:40:38.121Z,33.72
2024-03-08T13:43:43.504Z,31.80
2024-03-08T13:49:52.160Z,33.03
2024-03-08T13:52:56.421Z,35.22
2024-03-08T13:56:00.413Z,36.58
2024-03-08T13:59:03.896Z,39.47
2024-03-08T14:02:07.584Z,35.10
2024-03-08T14:05:12.567Z,37.40
2024-03-08T14:08:17.220Z,33.30
2024-03-08T14:11:56.629Z,37.45
2024-03-08T14:15:00.921Z,46.27
2024-03-08T14:18:04.200Z,37.53
2024-03-08T14:21:09.595Z,44.50
2024-03-08T14:24:12.606Z,40.38
2024-03-08T14:27:16.570Z,43.00
2024-03-08T14:30:33.560Z,39.47
2024-03-08T14:33:39.087Z,42.15
2024-03-08T14:36:42.127Z,38.97
2024-03-08T14:39:45.151Z,44.08
2024-03-08T14:42:50.685Z,40.00
2024-03-08T14:45:53.892Z,39.20
2024-03-08T14:48:57.661Z,35.72
2024-03-08T14:52:00.716Z,40.53
2024-03-08T14:55:04.578Z,41.33
2024-03-08T14:58:07.579Z,39.35
2024-03-08T15:01:11.399Z,39.80
2024-03-08T15:04:16.728Z,41.63
2024-03-08T15:07:20.345Z,37.03
2024-03-08T15:10:27.390Z,40.15
2024-03-08T15:13:50.941Z,34.58
2024-03-08T15:16:54.483Z,39.63
2024-03-08T15:19:57.751Z,35.25
2024-03-08T15:23:00.994Z,41.22
2024-03-08T15:26:08.862Z,38.30
2024-03-08T15:29:14.147Z,41.88
2024-03-08T15:32:23.408Z,45.27
2024-03-08T15:35:27.282Z,41.40
2024-03-08T15:38:30.573Z,43.00
2024-03-08T15:41:33.687Z,41.90
2024-03-08T15:44:36.695Z,37.60
2024-03-08T15:47:40.686Z,40.60
2024-03-08T15:50:43.967Z,41.25
2024-03-08T15:54:00.179Z,38.13
2024-03-08T15:57:09.169Z,34.42
2024-03-08T16:00:19.721Z,44.72
2024-03-08T16:03:22.812Z,35.57
2024-03-08T16:06:26.146Z,40.55
2024-03-08T16:09:30.679Z,40.45
2024-03-08T16:12:37.658Z,42.38
2024-03-08T16:15:40.657Z,41.65
2024-03-08T16:18:43.670Z,39.97
2024-03-08T16:21:46.707Z,42.75
2024-03-08T16:24:51.905Z,43.53
2024-03-08T16:27:54.930Z,38.97
2024-03-08T16:30:59.854Z,41.47
2024-03-08T16:34:05.203Z,36.57
2024-03-08T16:37:08.395Z,39.70
2024-03-08T16:40:21.539Z,41.00
2024-03-08T16:43:24.673Z,44.75
2024-03-08T16:46:33.176Z,46.38
2024-03-08T16:49:40.044Z,48.93
2024-03-08T16:52:44.310Z,43.80
2024-03-08T16:55:52.633Z,44.95
2024-03-08T16:58:56.076Z,41.67
2024-03-08T17:02:02.079Z,46.15
2024-03-08T17:05:07.257Z,37.53
2024-03-08T17:08:12.033Z,40.25
2024-03-08T17:11:19.272Z,41.22
2024-03-08T17:14:24.155Z,41.15
2024-03-08T17:17:27.271Z,43.80
2024-03-08T17:20:31.338Z,40.30
2024-03-08T17:23:34.425Z,44.78
2024-03-08T17:26:38.083Z,44.97
2024-03-08T17:29:41.195Z,40.03
2024-03-08T17:32:44.240Z,40.30
2024-03-08T17:35:47.299Z,41.27
2024-03-08T17:38:51.958Z,40.03
2024-03-08T17:41:55.185Z,45.75
2024-03-08T17:45:01.978Z,39.55
2024-03-08T17:48:05.345Z,41.33
2024-03-08T17:51:08.751Z,41.67
2024-03-08T17:54:17.577Z,38.78
2024-03-08T17:57:20.947Z,43.08
2024-03-08T18:00:33.751Z,41.28
2024-03-08T18:03:37.941Z,46.03
2024-03-08T18:06:43.761Z,46.20
2024-03-08T18:09:46.858Z,41.83
2024-03-08T18:12:52.051Z,47.22
2024-03-08T18:15:57.373Z,44.03
2024-03-08T18:19:08.325Z,43.05
2024-03-08T18:22:13.185Z,48.33
2024-03-08T18:25:19.880Z,44.25
2024-03-08T18:28:23.189Z,48.38
2024-03-08T18:31:28.593Z,50.22
2024-03-08T18:34:32.322Z,44.28
2024-03-08T18:37:36.059Z,47.73
2024-03-08T18:40:45.179Z,45.17
2024-03-08T18:43:51.000Z,42.35
2024-03-08T18:46:57.987Z,44.10
2024-03-08T18:50:01.222Z,47.25
2024-03-08T18:53:04.671Z,44.47
2024-03-08T18:56:08.925Z,41.95
2024-03-08T18:59:12.106Z,40.78
2024-03-08T19:02:17.627Z,44.10
2024-03-08T19:05:20.966Z,46.85
2024-03-08T19:08:24.972Z,41.90
2024-03-08T19:11:28.249Z,37.78
2024-03-08T19:14:31.367Z,48.80
2024-03-08T19:17:34.640Z,39.88
2024-03-08T19:20:38.735Z,44.78
2024-03-08T19:23:44.388Z,41.50
2024-03-08T19:26:49.849Z,39.08
2024-03-08T19:29:53.474Z,49.08
2024-03-08T19:32:59.827Z,47.95
2024-03-08T19:36:05.680Z,49.47
2024-03-08T19:39:11.964Z,50.40
2024-03-08T19:42:15.619Z,48.08
2024-03-08T19:45:19.808Z,43.47
2024-03-08T19:48:22.896Z,38.38
2024-03-08T19:51:25.984Z,47.03
2024-03-08T19:54:30.136Z,45.43
2024-03-08T19:57:33.139Z,39.28
2024-03-08T20:00:37.723Z,46.30
2024-03-08T20:03:40.886Z,41.95
2024-03-08T20:06:46.608Z,39.70
2024-03-08T20:09:49.651Z,42.77
2024-03-08T20:12:54.113Z,43.97
2024-03-08T20:15:57.368Z,44.25
2024-03-08T20:19:03.301Z,43.80
2024-03-08T20:22:06.495Z,45.65
2024-03-08T20:25:18.951Z,42.10
2024-03-08T20:28:22.111Z,43.97
2024-03-08T20:31:25.693Z,38.47
2024-03-08T20:34:30.283Z,41.00
2024-03-08T20:37:33.425Z,37.15
2024-03-08T20:40:47.999Z,43.97
2024-03-08T20:43:51.207Z,39.00
2024-03-08T20:46:54.269Z,40.05
2024-03-08T20:49:57.434Z,42.53
2024-03-08T20:53:00.716Z,41.13
2024-03-08T20:56:04.410Z,43.08
2024-03-08T20:59:07.723Z,44.50
2024-03-08T21:02:10.824Z,41.55
2024-03-08T21:05:14.026Z,41.27
2024-03-08T21:08:19.133Z,39.42
2024-03-08T21:11:24.716Z,41.47
2024-03-08T21:14:27.801Z,42.05
2024-03-08T21:17:30.882Z,46.55
2024-03-08T21:20:35.211Z,46.13
2024-03-08T21:23:38.316Z,46.75
2024-03-08T21:26:41.360Z,39.92
2024-03-08T21:29:44.356Z,41.45
2024-03-08T21:32:50.682Z,43.60
2024-03-08T21:35:53.832Z,49.27
2024-03-08T21:38:57.278Z,47.70
2024-03-08T21:42:00.253Z,46.47
2024-03-08T21:45:05.215Z,46.03
2024-03-08T21:48:09.983Z,50.20
2024-03-08T21:51:14.549Z,51.00
2024-03-08T21:54:18.885Z,49.42
2024-03-08T21:57:21.931Z,46.72
2024-03-08T22:00:24.949Z,45.17
2024-03-08T22:03:32.374Z,45.65
2024-03-08T22:06:35.606Z,48.97
2024-03-08T22:09:38.969Z,47.55
2024-03-08T22:12:41.960Z,41.15
2024-03-08T22:15:49.891Z,49.05
2024-03-08T22:18:54.310Z,43.35
2024-03-08T22:21:57.453Z,48.00
2024-03-08T22:25:01.881Z,48.08
2024-03-08T22:28:08.736Z,46.03
2024-03-08T22:31:11.888Z,40.78
2024-03-08T22:34:15.840Z,46.50
2024-03-08T22:37:18.973Z,45.73
2024-03-08T22:40:25.732Z,49.92
2024-03-08T22:43:30.815Z,44.55
2024-03-08T22:46:33.943Z,44.17
2024-03-08T22:49:37.034Z,46.05
2024-03-08T22:52:47.370Z,47.37
2024-03-08T22:55:53.574Z,45.80
2024-03-08T22:58:57.624Z,51.30
2024-03-08T23:02:00.711Z,42.22
2024-03-08T23:05:05.154Z,41.63
2024-03-08T23:08:09.483Z,47.23
2024-03-08T23:11:13.245Z,46.05
2024-03-08T23:14:16.341Z,46.10
2024-03-08T23:17:19.659Z,45.67
2024-03-08T23:20:22.866Z,44.63
2024-03-08T23:23:26.059Z,44.97
2024-03-08T23:26:29.099Z,47.28
2024-03-08T23:29:32.541Z,48.53
2024-03-08T23:32:35.860Z,47.47
2024-03-08T23:35:42.112Z,41.78
2024-03-08T23:38:46.035Z,44.23
2024-03-08T23:41:52.152Z,49.95
2024-03-08T23:44:55.140Z,45.13
2024-03-08T23:47:58.551Z,45.28
2024-03-08T23:51:01.726Z,42.13
2024-03-08T23:54:05.461Z,41.90
2024-03-08T23:57:08.632Z,45.95
